createdAt,value
2022-08-07T00:01:44.755Z,100565.25
2022-08-07T00:04:45.305Z,100572.66
2022-08-07T00:07:47.993Z,100569.03
2022-08-07T00:10:58.447Z,100570.72
2022-08-07T00:14:01.096Z,100572.37
2022-08-07T00:17:04.740Z,100582.19
2022-08-07T00:20:10.147Z,100570.53
2022-08-07T00:23:21.248Z,100570.28
2022-08-07T00:26:49.102Z,100580.25
2022-08-07T00:29:49.603Z,100568.91
2022-08-07T00:32:52.580Z,100566.75
2022-08-07T00:35:56.635Z,100564.44
2022-08-07T00:38:59.185Z,100565.13
2022-08-07T00:42:05.246Z,100569.72
2022-08-07T00:45:16.306Z,100573.19
2022-08-07T00:48:19.462Z,100572.91
2022-08-07T00:51:56.546Z,100571.53
2022-08-07T00:54:53.556Z,100562.87
2022-08-07T00:57:56.807Z,100562.56
2022-08-07T01:00:59.887Z,100563.53
2022-08-07T01:04:07.304Z,100561.19
2022-08-07T01:07:10.807Z,100559.59
2022-08-07T01:10:13.466Z,100569.75
2022-08-07T01:13:17.277Z,100560.03
2022-08-07T01:16:30.372Z,100567.41
2022-08-07T01:19:38.341Z,100570.28
2022-08-07T01:22:56.580Z,100564.88
2022-08-07T01:26:11.897Z,100565.72
2022-08-07T01:29:16.208Z,100559.31
2022-08-07T01:32:19.491Z,100557.16
2022-08-07T01:35:26.593Z,100557.72
2022-08-07T01:38:49.490Z,100559.59
2022-08-07T01:42:07.736Z,100555.59
2022-08-07T01:45:18.038Z,100559.91
2022-08-07T01:48:29.921Z,100561.06
2022-08-07T01:52:01.663Z,100560.22
2022-08-07T01:55:00.747Z,100556.34
2022-08-07T01:58:28.953Z,100560.75
2022-08-07T02:02:02.836Z,100567.84
2022-08-07T02:05:09.143Z,100562.03
2022-08-07T02:08:23.733Z,100562.59
2022-08-07T02:11:30.721Z,100569.13
2022-08-07T02:14:54.881Z,100565.06
2022-08-07T02:18:01.274Z,100567.56
2022-08-07T02:21:08.139Z,100567.56
2022-08-07T02:24:19.508Z,100564.44
2022-08-07T02:27:25.202Z,100568.84
2022-08-07T02:30:30.702Z,100564.69
2022-08-07T02:33:57.481Z,100576.75
2022-08-07T02:37:08.135Z,100575.47
2022-08-07T02:40:30.442Z,100581.47
2022-08-07T02:43:39.385Z,100582.97
2022-08-07T02:46:46.513Z,100583.47
2022-08-07T02:49:57.498Z,100582.53
2022-08-07T02:53:10.902Z,100583.91
2022-08-07T02:56:21.703Z,100593.41
2022-08-07T02:59:27.463Z,100591.47
2022-08-07T03:02:32.559Z,100586.81
2022-08-07T03:05:38.052Z,100586.22
2022-08-07T03:08:41.931Z,100590.13
2022-08-07T03:11:52.582Z,100586.53
2022-08-07T03:15:07.807Z,100587.81
2022-08-07T03:18:20.023Z,100593.69
2022-08-07T03:21:24.458Z,100590.22
2022-08-07T03:24:28.388Z,100590.13
2022-08-07T03:27:58.810Z,100596.00
2022-08-07T03:31:17.439Z,100604.31
2022-08-07T03:34:22.534Z,100599.78
2022-08-07T03:37:28.029Z,100601.81
2022-08-07T03:40:37.142Z,100599.91
2022-08-07T03:43:52.162Z,100607.19
2022-08-07T03:47:12.987Z,100606.25
2022-08-07T03:50:23.326Z,100601.69
2022-08-07T03:53:50.137Z,100603.72
2022-08-07T03:57:03.768Z,100614.03
2022-08-07T04:00:12.063Z,100615.94
2022-08-07T04:03:18.375Z,100617.38
2022-08-07T04:06:37.761Z,100614.94
2022-08-07T04:09:45.336Z,100625.81
2022-08-07T04:12:55.263Z,100630.94
2022-08-07T04:15:58.644Z,100633.84
2022-08-07T04:19:14.643Z,100638.16
2022-08-07T04:22:19.497Z,100642.16
2022-08-07T04:25:29.262Z,100641.50
2022-08-07T04:28:33.544Z,100635.25
2022-08-07T04:32:02.935Z,100639.81
2022-08-07T04:35:06.331Z,100648.53
2022-08-07T04:38:13.152Z,100649.19
2022-08-07T04:41:19.016Z,100651.03
2022-08-07T04:44:22.843Z,100649.72
2022-08-07T04:47:57.302Z,100660.13
2022-08-07T04:51:11.190Z,100661.75
2022-08-07T04:54:31.604Z,100664.84
2022-08-07T04:58:12.233Z,100663.31
2022-08-07T05:01:18.251Z,100662.25
2022-08-07T05:04:37.644Z,100666.72
2022-08-07T05:07:56.847Z,100662.84
2022-08-07T05:11:19.439Z,100670.50
2022-08-07T05:14:56.259Z,100676.06
2022-08-07T05:18:20.905Z,100681.78
2022-08-07T05:21:59.781Z,100683.47
2022-08-07T05:24:51.956Z,100686.66
2022-08-07T05:28:16.719Z,100684.47
2022-08-07T05:31:22.193Z,100686.19
2022-08-07T05:34:27.691Z,100692.03
2022-08-07T05:37:32.500Z,100695.38
2022-08-07T05:40:51.541Z,100688.50
2022-08-07T05:44:12.359Z,100697.19
2022-08-07T05:47:19.990Z,100698.19
2022-08-07T05:50:43.034Z,100705.72
2022-08-07T05:54:13.134Z,100695.94
2022-08-07T05:57:09.885Z,100699.16
2022-08-07T06:00:15.983Z,100707.66
2022-08-07T06:03:22.999Z,100704.31
2022-08-07T06:06:29.580Z,100698.47
2022-08-07T06:10:04.586Z,100690.22
2022-08-07T06:13:03.633Z,100696.91
2022-08-07T06:16:08.693Z,100697.22
2022-08-07T06:19:17.904Z,100699.25
2022-08-07T06:22:23.938Z,100698.94
2022-08-07T06:25:34.811Z,100703.88
2022-08-07T06:28:54.384Z,100706.12
2022-08-07T06:31:58.303Z,100705.00
2022-08-07T06:35:10.558Z,100710.44
2022-08-07T06:38:21.777Z,100719.63
2022-08-07T06:42:00.552Z,100722.69
2022-08-07T06:44:56.849Z,100716.72
2022-08-07T06:48:00.406Z,100731.38
2022-08-07T06:51:09.631Z,100727.16
2022-08-07T06:55:33.045Z,100738.34
2022-08-07T06:57:48.349Z,100732.63
2022-08-07T07:00:58.230Z,100736.38
2022-08-07T07:04:23.692Z,100743.06
2022-08-07T07:07:59.879Z,100741.16
2022-08-07T07:10:47.611Z,100741.41
2022-08-07T07:14:02.431Z,100740.00
2022-08-07T07:17:16.192Z,100737.38
2022-08-07T07:20:25.532Z,100734.41
2022-08-07T07:24:10.800Z,100733.81
2022-08-07T07:26:58.895Z,100733.84
2022-08-07T07:30:09.884Z,100735.78
2022-08-07T07:33:17.457Z,100731.63
2022-08-07T07:36:22.949Z,100725.31
2022-08-07T07:39:52.536Z,100721.22
2022-08-07T07:43:06.271Z,100722.63
2022-08-07T07:46:36.989Z,100730.16
2022-08-07T07:50:34.082Z,100713.12
2022-08-07T07:53:20.143Z,100720.81
2022-08-07T07:56:29.666Z,100729.59
2022-08-07T07:59:52.686Z,100726.62
2022-08-07T08:03:16.351Z,100725.91
2022-08-07T08:06:20.110Z,100734.94
2022-08-07T08:09:29.514Z,100734.56
2022-08-07T08:12:52.657Z,100730.59
2022-08-07T08:16:01.890Z,100726.97
2022-08-07T08:19:18.141Z,100729.84
2022-08-07T08:22:55.892Z,100728.66
2022-08-07T08:26:27.112Z,100728.22
2022-08-07T08:29:36.361Z,100727.59
2022-08-07T08:33:01.549Z,100726.69
2022-08-07T08:36:07.508Z,100729.34
2022-08-07T08:39:11.259Z,100717.44
2022-08-07T08:42:25.853Z,100724.69
2022-08-07T08:45:41.849Z,100731.34
2022-08-07T08:49:19.094Z,100737.28
2022-08-07T08:52:54.311Z,100722.19
2022-08-07T08:56:02.919Z,100738.97
2022-08-07T08:59:25.919Z,100730.03
2022-08-07T09:02:54.578Z,100734.78
2022-08-07T09:06:11.572Z,100739.19
2022-08-07T09:09:38.644Z,100729.41
2022-08-07T09:13:10.913Z,100729.75
2022-08-07T09:16:38.989Z,100733.81
2022-08-07T09:19:57.633Z,100738.69
2022-08-07T09:24:31.220Z,100725.88
2022-08-07T09:26:47.930Z,100724.41
2022-08-07T09:30:08.438Z,100723.38
2022-08-07T09:33:57.083Z,100718.53
2022-08-07T09:37:12.440Z,100714.38
2022-08-07T09:40:38.538Z,100711.97
2022-08-07T09:44:06.915Z,100712.13
2022-08-07T09:48:00.085Z,100712.72
2022-08-07T09:51:14.582Z,100709.41
2022-08-07T09:54:40.939Z,100709.69
2022-08-07T09:58:10.335Z,100702.16
2022-08-07T10:01:52.374Z,100693.97
2022-08-07T10:05:21.943Z,100697.47
2022-08-07T10:09:10.893Z,100680.66
2022-08-07T10:12:53.164Z,100685.06
2022-08-07T10:16:16.371Z,100684.72
2022-08-07T10:19:26.898Z,100672.78
2022-08-07T10:22:50.889Z,100669.28
2022-08-07T10:25:53.855Z,100671.59
2022-08-07T10:29:15.260Z,100662.53
2022-08-07T10:32:52.939Z,100661.41
2022-08-07T10:36:36.379Z,100662.62
2022-08-07T10:40:03.271Z,100660.69
2022-08-07T10:43:34.487Z,100651.28
2022-08-07T10:46:55.804Z,100644.09
2022-08-07T10:50:08.684Z,100651.50
2022-08-07T10:53:41.951Z,100643.25
2022-08-07T10:57:13.733Z,100638.69
2022-08-07T11:00:39.751Z,100639.94
2022-08-07T11:04:23.304Z,100635.22
2022-08-07T11:08:12.549Z,100642.22
2022-08-07T11:11:29.657Z,100635.66
2022-08-07T11:15:00.181Z,100634.44
2022-08-07T11:18:16.052Z,100623.25
2022-08-07T11:21:58.701Z,100621.50
2022-08-07T11:25:13.083Z,100621.84
2022-08-07T11:28:29.133Z,100622.06
2022-08-07T11:31:41.738Z,100618.72
2022-08-07T11:34:53.637Z,100612.34
2022-08-07T11:38:28.338Z,100611.22
2022-08-07T11:42:01.647Z,100601.91
2022-08-07T11:45:05.504Z,100601.78
2022-08-07T11:48:37.588Z,100604.22
2022-08-07T11:51:46.806Z,100597.69
2022-08-07T11:55:18.637Z,100600.22
2022-08-07T11:58:43.735Z,100598.81
2022-08-07T12:02:01.380Z,100593.88
2022-08-07T12:05:41.713Z,100582.81
2022-08-07T12:09:16.176Z,100581.38
2022-08-07T12:12:28.347Z,100579.47
2022-08-07T12:15:46.563Z,100575.06
2022-08-07T12:19:21.165Z,100572.06
2022-08-07T12:22:56.323Z,100573.78
2022-08-07T12:26:28.640Z,100570.00
2022-08-07T12:29:40.400Z,100569.03
2022-08-07T12:32:49.865Z,100566.31
2022-08-07T12:35:57.944Z,100559.97
2022-08-07T12:39:09.535Z,100561.63
2022-08-07T12:42:31.904Z,100559.31
2022-08-07T12:45:55.265Z,100552.78
2022-08-07T12:49:25.793Z,100546.50
2022-08-07T12:52:52.318Z,100542.16
2022-08-07T12:56:10.237Z,100542.88
2022-08-07T12:59:21.546Z,100540.53
2022-08-07T13:02:50.877Z,100538.34
2022-08-07T13:06:21.657Z,100534.28
2022-08-07T13:10:19.601Z,100528.97
2022-08-07T13:14:01.677Z,100531.47
2022-08-07T13:17:21.245Z,100526.34
2022-08-07T13:20:41.364Z,100526.34
2022-08-07T13:24:00.689Z,100531.22
2022-08-07T13:27:15.096Z,100522.69
2022-08-07T13:30:40.045Z,100524.59
2022-08-07T13:34:32.872Z,100523.41
2022-08-07T13:37:34.329Z,100515.13
2022-08-07T13:40:54.428Z,100514.31
2022-08-07T13:44:01.862Z,100508.94
2022-08-07T13:47:09.335Z,100504.59
2022-08-07T13:50:33.290Z,100502.34
2022-08-07T13:53:59.542Z,100502.34
2022-08-07T13:57:10.888Z,100495.94
2022-08-07T14:00:26.761Z,100487.63
2022-08-07T14:04:07.603Z,100484.53
2022-08-07T14:06:55.128Z,100478.16
2022-08-07T14:10:23.117Z,100477.50
2022-08-07T14:13:33.838Z,100473.16
2022-08-07T14:16:40.314Z,100467.19
2022-08-07T14:20:40.496Z,100470.22
2022-08-07T14:24:00.911Z,100463.00
2022-08-07T14:28:09.506Z,100483.28
2022-08-07T14:33:57.059Z,100466.06
2022-08-07T14:37:03.614Z,100467.09
2022-08-07T14:43:57.212Z,100453.22
2022-08-07T14:47:14.247Z,100455.81
2022-08-07T14:50:20.428Z,100454.06
2022-08-07T14:53:49.987Z,100452.62
2022-08-07T14:56:51.103Z,100452.75
2022-08-07T15:00:05.353Z,100448.56
2022-08-07T15:06:37.940Z,100441.53
2022-08-07T15:09:59.067Z,100440.53
2022-08-07T15:13:12.289Z,100438.44
2022-08-07T15:16:33.497Z,100425.28
2022-08-07T15:20:31.216Z,100428.13
2022-08-07T15:26:43.940Z,100417.22
2022-08-07T15:30:08.408Z,100429.63
2022-08-07T15:33:20.131Z,100420.91
2022-08-07T15:37:04.421Z,100424.47
2022-08-07T15:39:59.029Z,100419.50
2022-08-07T15:43:33.243Z,100406.87
2022-08-07T15:50:11.635Z,100409.16
2022-08-07T15:53:41.909Z,100405.34
2022-08-07T15:56:59.718Z,100411.53
2022-08-07T16:00:06.191Z,100408.19
2022-08-07T16:03:46.255Z,100408.47
2022-08-07T16:06:51.122Z,100400.47
2022-08-07T16:10:03.739Z,100404.62
2022-08-07T16:13:59.300Z,100395.81
2022-08-07T16:17:03.220Z,100403.56
2022-08-07T16:20:55.251Z,100402.47
2022-08-07T16:24:52.616Z,100405.56
2022-08-07T16:30:05.551Z,100392.78
2022-08-07T16:31:57.794Z,100400.13
2022-08-07T16:35:59.431Z,100403.25
2022-08-07T16:39:14.815Z,100395.81
2022-08-07T16:42:52.568Z,100399.50
2022-08-07T16:47:06.451Z,100404.78
2022-08-07T16:50:35.187Z,100406.53
2022-08-07T16:54:19.512Z,100395.25
2022-08-07T16:58:02.597Z,100400.56
2022-08-07T17:01:18.154Z,100408.00
2022-08-07T17:04:58.766Z,100404.16
2022-08-07T17:08:02.152Z,100400.16
2022-08-07T17:11:22.344Z,100410.19
2022-08-07T17:14:37.879Z,100401.97
2022-08-07T17:17:47.982Z,100401.19
2022-08-07T17:20:54.833Z,100412.50
2022-08-07T17:24:23.720Z,100405.59
2022-08-07T17:27:54.113Z,100415.03
2022-08-07T17:31:22.635Z,100415.78
2022-08-07T17:34:57.245Z,100414.06
2022-08-07T17:38:35.297Z,100402.78
2022-08-07T17:42:03.808Z,100411.41
2022-08-07T17:45:19.849Z,100419.44
2022-08-07T17:48:31.942Z,100422.75
2022-08-07T17:51:59.870Z,100427.00
2022-08-07T17:55:12.882Z,100427.44
2022-08-07T17:58:31.108Z,100433.16
2022-08-07T18:01:44.167Z,100429.12
2022-08-07T18:05:21.448Z,100436.38
2022-08-07T18:08:31.196Z,100435.62
2022-08-07T18:12:18.081Z,100450.69
2022-08-07T18:15:39.342Z,100462.56
2022-08-07T18:21:04.510Z,100464.94
2022-08-07T18:22:27.101Z,100462.12
2022-08-07T18:25:40.372Z,100468.00
2022-08-07T18:30:05.978Z,100464.16
2022-08-07T18:33:10.883Z,100473.41
2022-08-07T18:36:36.353Z,100474.72
2022-08-07T18:40:05.080Z,100471.56
2022-08-07T18:43:10.942Z,100483.09
2022-08-07T18:46:25.255Z,100480.31
2022-08-07T18:50:35.236Z,100483.75
2022-08-07T18:53:13.846Z,100486.66
2022-08-07T18:56:30.595Z,100485.50
2022-08-07T18:59:59.416Z,100502.59
2022-08-07T19:03:15.800Z,100495.56
2022-08-07T19:06:33.705Z,100503.31
2022-08-07T19:09:59.319Z,100502.06
2022-08-07T19:13:38.072Z,100510.47
2022-08-07T19:17:07.073Z,100512.16
2022-08-07T19:20:29.535Z,100515.81
2022-08-07T19:23:58.488Z,100524.53
2022-08-07T19:28:29.376Z,100532.53
2022-08-07T19:31:04.037Z,100540.84
2022-08-07T19:34:02.639Z,100541.50
2022-08-07T19:37:17.313Z,100548.81
2022-08-07T19:40:31.553Z,100551.97
2022-08-07T19:43:49.136Z,100563.03
2022-08-07T19:47:05.209Z,100567.38
2022-08-07T19:50:45.164Z,100570.53
2022-08-07T19:54:31.045Z,100569.16
2022-08-07T19:58:03.553Z,100581.28
2022-08-07T20:00:28.836Z,100577.44
2022-08-07T20:03:36.300Z,100581.72
2022-08-07T20:06:43.052Z,100591.00
2022-08-07T20:10:37.333Z,100587.78
2022-08-07T20:13:26.998Z,100589.06
2022-08-07T20:16:36.207Z,100592.06
2022-08-07T20:19:49.394Z,100591.88
2022-08-07T20:23:10.839Z,100595.84
2022-08-07T20:26:44.858Z,100599.72
2022-08-07T20:29:58.427Z,100604.97
2022-08-07T20:33:36.324Z,100611.25
2022-08-07T20:36:33.667Z,100607.00
2022-08-07T20:40:02.615Z,100604.59
2022-08-07T20:43:09.706Z,100608.59
2022-08-07T20:46:29.014Z,100604.69
2022-08-07T20:49:58.115Z,100604.28
2022-08-07T20:53:00.567Z,100598.72
2022-08-07T20:56:07.237Z,100600.72
2022-08-07T21:00:05.286Z,100605.34
2022-08-07T21:02:58.168Z,100600.25
2022-08-07T21:06:21.645Z,100610.16
2022-08-07T21:09:53.068Z,100609.72
2022-08-07T21:13:06.220Z,100609.19
2022-08-07T21:16:11.324Z,100620.66
2022-08-07T21:19:16.193Z,100617.31
2022-08-07T21:22:28.246Z,100621.53
2022-08-07T21:26:20.418Z,100621.69
2022-08-07T21:29:37.420Z,100631.06
2022-08-07T21:33:08.022Z,100635.78
2022-08-07T21:36:31.114Z,100638.62
2022-08-07T21:40:01.431Z,100638.94
2022-08-07T21:43:16.700Z,100644.72
2022-08-07T21:46:44.430Z,100641.25
2022-08-07T21:50:02.006Z,100647.66
2022-08-07T21:53:12.871Z,100641.25
2022-08-07T21:56:37.694Z,100643.78
2022-08-07T22:00:04.673Z,100642.09
2022-08-07T22:03:17.251Z,100650.34
2022-08-07T22:06:44.959Z,100649.53
2022-08-07T22:09:54.434Z,100653.72
2022-08-07T22:13:01.269Z,100656.91
2022-08-07T22:16:45.609Z,100654.84
2022-08-07T22:20:22.807Z,100656.91
2022-08-07T22:23:40.415Z,100653.19
2022-08-07T22:26:51.582Z,100652.91
2022-08-07T22:30:12.787Z,100651.09
2022-08-07T22:33:18.033Z,100650.53
2022-08-07T22:37:12.437Z,100655.56
2022-08-07T22:40:23.253Z,100662.81
2022-08-07T22:43:36.109Z,100667.25
2022-08-07T22:47:17.005Z,100662.81
2022-08-07T22:50:38.212Z,100663.50
2022-08-07T22:54:09.173Z,100670.87
2022-08-07T22:57:41.056Z,100669.91
2022-08-07T23:01:18.393Z,100672.81
2022-08-07T23:06:08.857Z,100665.84
2022-08-07T23:08:47.932Z,100682.41
2022-08-07T23:12:32.624Z,100689.78
2022-08-07T23:16:07.317Z,100692.66
2022-08-07T23:20:19.073Z,100697.13
2022-08-07T23:24:06.588Z,100691.97
2022-08-07T23:27:33.932Z,100688.75
2022-08-07T23:31:13.715Z,100694.59
2022-08-07T23:34:42.322Z,100689.41
2022-08-07T23:38:01.062Z,100691.88
2022-08-07T23:41:47.411Z,100690.59
2022-08-07T23:45:33.250Z,100687.41
2022-08-07T23:48:50.107Z,100684.13
2022-08-07T23:52:59.616Z,100689.59
2022-08-07T23:55:53.448Z,100689.69
